createdAt,value
2023-11-26T00:01:54.902Z,6.42
2023-11-26T00:04:21.582Z,6.42
2023-11-26T00:06:48.206Z,6.44
2023-11-26T00:09:14.948Z,6.43
2023-11-26T00:11:41.479Z,6.43
2023-11-26T00:14:08.173Z,6.42
2023-11-26T00:16:38.580Z,6.40
2023-11-26T00:19:05.473Z,6.39
2023-11-26T00:21:33.255Z,6.34
2023-11-26T00:24:00.485Z,6.28
2023-11-26T00:26:27.830Z,6.23
2023-11-26T00:28:55.210Z,6.20
2023-11-26T00:31:22.008Z,6.17
2023-11-26T00:33:51.754Z,6.14
2023-11-26T00:36:24.993Z,6.09
2023-11-26T00:38:51.849Z,6.07
2023-11-26T00:41:18.720Z,6.08
2023-11-26T00:43:45.486Z,6.08
2023-11-26T00:46:12.421Z,6.10
2023-11-26T00:48:39.062Z,6.10
2023-11-26T00:51:05.745Z,6.12
2023-11-26T00:53:35.142Z,6.13
2023-11-26T00:56:02.618Z,6.12
2023-11-26T00:58:29.230Z,6.11
2023-11-26T01:00:55.901Z,6.05
2023-11-26T01:03:22.604Z,6.05
2023-11-26T01:05:49.275Z,6.06
2023-11-26T01:08:15.994Z,6.07
2023-11-26T01:10:42.744Z,6.07
2023-11-26T01:13:09.480Z,6.06
2023-11-26T01:15:38.423Z,6.04
2023-11-26T01:18:05.649Z,6.04
2023-11-26T01:20:32.613Z,6.02
2023-11-26T01:22:59.197Z,6.01
2023-11-26T01:25:25.817Z,5.97
2023-11-26T01:27:52.433Z,5.94
2023-11-26T01:30:19.105Z,5.90
2023-11-26T01:32:45.825Z,5.90
2023-11-26T01:35:12.467Z,5.92
2023-11-26T01:37:42.321Z,5.92
2023-11-26T01:40:10.578Z,5.93
2023-11-26T01:42:37.211Z,5.95
2023-11-26T01:45:04.100Z,5.92
2023-11-26T01:47:31.019Z,5.89
2023-11-26T01:49:57.671Z,5.89
2023-11-26T01:52:24.382Z,5.92
2023-11-26T01:54:51.240Z,5.95
2023-11-26T01:57:18.535Z,5.97
2023-11-26T01:59:45.871Z,5.94
2023-11-26T02:02:12.663Z,5.94
2023-11-26T02:04:39.333Z,5.95
2023-11-26T02:07:06.624Z,5.96
2023-11-26T02:09:34.003Z,5.95
2023-11-26T02:12:00.777Z,5.93
2023-11-26T02:14:28.109Z,5.94
2023-11-26T02:16:55.333Z,5.93
2023-11-26T02:19:34.123Z,5.95
2023-11-26T02:22:02.778Z,5.99
2023-11-26T02:24:47.638Z,6.03
2023-11-26T02:27:15.491Z,6.04
2023-11-26T02:29:42.947Z,6.04
2023-11-26T02:32:10.897Z,6.02
2023-11-26T02:34:37.695Z,6.03
2023-11-26T02:37:04.641Z,5.98
2023-11-26T02:39:31.275Z,5.93
2023-11-26T02:41:59.889Z,5.90
2023-11-26T02:44:27.017Z,5.87
2023-11-26T02:46:53.878Z,5.88
2023-11-26T02:49:21.053Z,5.86
2023-11-26T02:51:47.600Z,5.85
2023-11-26T02:54:14.836Z,5.85
2023-11-26T02:56:47.336Z,5.82
2023-11-26T02:59:14.210Z,5.80
2023-11-26T03:01:41.752Z,5.76
2023-11-26T03:04:10.130Z,5.72
2023-11-26T03:06:37.470Z,5.70
2023-11-26T03:09:20.873Z,5.72
2023-11-26T03:12:05.642Z,5.73
2023-11-26T03:14:32.233Z,5.73
2023-11-26T03:16:59.868Z,5.75
2023-11-26T03:19:26.453Z,5.76
2023-11-26T03:21:55.883Z,5.76
2023-11-26T03:24:22.591Z,5.73
2023-11-26T03:26:49.829Z,5.75
2023-11-26T03:29:16.566Z,5.73
2023-11-26T03:31:43.258Z,5.71
2023-11-26T03:34:10.496Z,5.72
2023-11-26T03:36:38.468Z,5.75
2023-11-26T03:39:05.774Z,5.77
2023-11-26T03:41:32.384Z,5.77
2023-11-26T03:43:59.109Z,5.78
2023-11-26T03:46:25.678Z,5.78
2023-11-26T03:48:53.285Z,5.81
2023-11-26T03:51:24.542Z,5.83
2023-11-26T03:53:51.276Z,5.84
2023-11-26T03:56:18.117Z,5.85
2023-11-26T03:58:45.355Z,5.82
2023-11-26T04:01:13.122Z,5.82
2023-11-26T04:03:40.320Z,5.86
2023-11-26T04:06:07.312Z,5.92
2023-11-26T04:08:34.167Z,5.94
2023-11-26T04:11:00.852Z,5.92
2023-11-26T04:13:30.286Z,5.92
2023-11-26T04:15:58.761Z,5.88
2023-11-26T04:18:29.149Z,5.89
2023-11-26T04:20:56.083Z,5.94
2023-11-26T04:23:23.930Z,5.97
2023-11-26T04:25:50.709Z,5.98
2023-11-26T04:28:17.360Z,5.98
2023-11-26T04:30:43.983Z,5.99
2023-11-26T04:33:10.710Z,5.99
2023-11-26T04:35:38.378Z,5.97
2023-11-26T04:38:05.135Z,5.92
2023-11-26T04:40:31.767Z,5.86
2023-11-26T04:42:58.416Z,5.80
2023-11-26T04:45:25.086Z,5.74
2023-11-26T04:47:52.044Z,5.69
2023-11-26T04:50:20.047Z,5.64
2023-11-26T04:52:46.700Z,5.58
2023-11-26T04:55:13.855Z,5.57
2023-11-26T04:57:40.625Z,5.59
2023-11-26T05:00:07.768Z,5.58
2023-11-26T05:02:34.737Z,5.62
2023-11-26T05:05:02.179Z,5.63
2023-11-26T05:07:29.302Z,5.64
2023-11-26T05:09:56.482Z,5.67
2023-11-26T05:12:23.305Z,5.69
2023-11-26T05:14:50.121Z,5.74
2023-11-26T05:17:17.347Z,5.76
2023-11-26T05:19:44.140Z,5.79
2023-11-26T05:22:10.865Z,5.78
2023-11-26T05:24:39.057Z,5.75
2023-11-26T05:27:06.104Z,5.73
2023-11-26T05:29:32.963Z,5.66
2023-11-26T05:31:59.910Z,5.61
2023-11-26T05:34:26.619Z,5.58
2023-11-26T05:36:53.348Z,5.57
2023-11-26T05:39:20.978Z,5.54
2023-11-26T05:41:47.669Z,5.52
2023-11-26T05:44:14.300Z,5.57
2023-11-26T05:46:47.123Z,5.63
2023-11-26T05:49:13.707Z,5.65
2023-11-26T05:51:40.338Z,5.64
2023-11-26T05:54:07.988Z,5.67
2023-11-26T05:56:34.775Z,5.72
2023-11-26T05:59:01.662Z,5.73
2023-11-26T06:01:28.460Z,5.75
2023-11-26T06:03:55.898Z,5.77
2023-11-26T06:06:22.635Z,5.78
2023-11-26T06:08:49.210Z,5.78
2023-11-26T06:11:15.811Z,5.79
2023-11-26T06:13:42.444Z,5.79
2023-11-26T06:16:09.357Z,5.79
2023-11-26T06:18:36.022Z,5.75
2023-11-26T06:21:02.618Z,5.73
2023-11-26T06:23:29.325Z,5.73
2023-11-26T06:25:55.860Z,5.70
2023-11-26T06:28:22.501Z,5.64
2023-11-26T06:30:49.230Z,5.62
2023-11-26T06:33:15.870Z,5.59
2023-11-26T06:35:42.589Z,5.56
2023-11-26T06:38:09.313Z,5.54
2023-11-26T06:40:37.583Z,5.54
2023-11-26T06:43:04.278Z,5.55
2023-11-26T06:45:30.973Z,5.51
2023-11-26T06:47:57.629Z,5.51
2023-11-26T06:50:24.464Z,5.52
2023-11-26T06:52:51.092Z,5.53
2023-11-26T06:55:17.842Z,5.54
2023-11-26T06:57:44.560Z,5.53
2023-11-26T07:00:12.861Z,5.53
2023-11-26T07:02:39.660Z,5.53
2023-11-26T07:05:07.952Z,5.49
2023-11-26T07:07:34.674Z,5.49
2023-11-26T07:10:01.212Z,5.51
2023-11-26T07:12:30.762Z,5.49
2023-11-26T07:14:57.769Z,5.50
2023-11-26T07:17:26.624Z,5.53
2023-11-26T07:19:54.734Z,5.58
2023-11-26T07:22:22.790Z,5.63
2023-11-26T07:24:50.186Z,5.64
2023-11-26T07:27:17.005Z,5.57
2023-11-26T07:29:43.579Z,5.47
2023-11-26T07:32:10.274Z,5.43
2023-11-26T07:34:36.853Z,5.42
2023-11-26T07:37:05.790Z,5.43
2023-11-26T07:39:36.101Z,5.46
2023-11-26T07:42:02.996Z,5.53
2023-11-26T07:44:30.902Z,5.56
2023-11-26T07:46:57.599Z,5.59
2023-11-26T07:49:24.253Z,5.62
2023-11-26T07:51:50.960Z,5.67
2023-11-26T07:54:25.206Z,5.72
2023-11-26T07:56:52.632Z,5.80
2023-11-26T07:59:19.407Z,5.90
2023-11-26T08:01:51.092Z,5.99
2023-11-26T08:04:18.829Z,6.04
2023-11-26T08:06:49.638Z,6.13
2023-11-26T08:09:16.917Z,6.20
2023-11-26T08:11:46.162Z,6.29
2023-11-26T08:14:13.861Z,6.41
2023-11-26T08:16:41.234Z,6.52
2023-11-26T08:19:13.773Z,6.60
2023-11-26T08:21:43.581Z,6.67
2023-11-26T08:24:15.331Z,6.74
2023-11-26T08:26:42.782Z,6.78
2023-11-26T08:29:11.032Z,6.79
2023-11-26T08:31:40.969Z,6.83
2023-11-26T08:34:08.965Z,6.92
2023-11-26T08:36:37.480Z,7.00
2023-11-26T08:39:06.017Z,7.08
2023-11-26T08:41:32.562Z,7.17
2023-11-26T08:43:59.276Z,7.24
2023-11-26T08:46:28.250Z,7.31
2023-11-26T08:48:55.090Z,7.37
2023-11-26T08:51:21.866Z,7.46
2023-11-26T08:53:48.658Z,7.53
2023-11-26T08:56:15.327Z,7.62
2023-11-26T08:58:41.988Z,7.72
2023-11-26T09:01:08.829Z,7.81
2023-11-26T09:03:38.020Z,7.88
2023-11-26T09:06:05.724Z,7.98
2023-11-26T09:08:32.518Z,8.07
2023-11-26T09:11:00.119Z,8.16
2023-11-26T09:13:30.289Z,8.22
2023-11-26T09:15:57.705Z,8.30
2023-11-26T09:18:24.846Z,8.43
2023-11-26T09:20:51.480Z,8.53
2023-11-26T09:23:18.085Z,8.61
2023-11-26T09:25:44.769Z,8.68
2023-11-26T09:28:11.363Z,8.79
2023-11-26T09:30:38.333Z,8.91
2023-11-26T09:33:05.029Z,9.02
2023-11-26T09:35:31.685Z,9.08
2023-11-26T09:37:58.298Z,9.16
2023-11-26T09:40:24.861Z,9.27
2023-11-26T09:42:53.520Z,9.37
2023-11-26T09:45:20.333Z,9.43
2023-11-26T09:47:47.247Z,9.45
2023-11-26T09:50:14.938Z,9.50
2023-11-26T09:52:41.884Z,9.62
2023-11-26T09:55:10.004Z,9.81
2023-11-26T09:57:38.902Z,10.02
2023-11-26T10:00:07.598Z,10.14
2023-11-26T10:02:34.455Z,10.30
2023-11-26T10:05:01.324Z,10.46
2023-11-26T10:07:38.840Z,10.63
2023-11-26T10:10:14.525Z,10.79
2023-11-26T10:12:51.186Z,10.92
2023-11-26T10:15:17.863Z,11.02
2023-11-26T10:18:00.073Z,11.12
2023-11-26T10:20:27.549Z,11.23
2023-11-26T10:22:54.216Z,11.33
2023-11-26T10:25:21.050Z,11.45
2023-11-26T10:27:49.101Z,11.54
2023-11-26T10:30:33.557Z,11.63
2023-11-26T10:33:08.945Z,11.71
2023-11-26T10:35:55.850Z,11.76
2023-11-26T10:38:35.249Z,11.80
2023-11-26T10:41:04.255Z,11.85
2023-11-26T10:43:39.094Z,11.88
2023-11-26T10:46:12.351Z,11.94
2023-11-26T10:48:42.114Z,12.03
2023-11-26T10:51:29.243Z,12.10
2023-11-26T10:54:06.693Z,12.20
2023-11-26T10:56:38.330Z,12.27
2023-11-26T10:59:08.183Z,12.32
2023-11-26T11:01:36.253Z,12.39
2023-11-26T11:04:04.422Z,12.46
2023-11-26T11:06:31.641Z,12.52
2023-11-26T11:08:58.701Z,12.56
2023-11-26T11:12:05.882Z,12.61
2023-11-26T11:14:32.954Z,12.68
2023-11-26T11:17:00.187Z,12.73
2023-11-26T11:19:52.365Z,12.81
2023-11-26T11:22:19.899Z,12.87
2023-11-26T11:24:46.687Z,12.90
2023-11-26T11:27:13.328Z,12.95
2023-11-26T11:29:40.204Z,12.99
2023-11-26T11:32:06.988Z,13.02
2023-11-26T11:34:33.790Z,13.06
2023-11-26T11:37:02.226Z,13.09
2023-11-26T11:39:52.433Z,13.12
2023-11-26T11:42:28.059Z,13.14
2023-11-26T11:44:56.027Z,13.16
2023-11-26T11:47:43.315Z,13.21
2023-11-26T11:50:11.071Z,13.24
2023-11-26T11:52:39.123Z,13.28
2023-11-26T11:55:30.684Z,13.31
2023-11-26T11:57:57.323Z,13.33
2023-11-26T12:00:24.066Z,13.34
2023-11-26T12:02:51.201Z,13.34
2023-11-26T12:05:28.424Z,13.35
2023-11-26T12:07:59.389Z,13.37
2023-11-26T12:10:27.864Z,13.39
2023-11-26T12:13:06.913Z,13.40
2023-11-26T12:15:34.141Z,13.43
2023-11-26T12:18:01.890Z,13.42
2023-11-26T12:20:29.261Z,13.43
2023-11-26T12:22:57.182Z,13.43
2023-11-26T12:25:24.025Z,13.41
2023-11-26T12:28:04.224Z,13.42
2023-11-26T12:30:31.048Z,13.42
2023-11-26T12:32:58.009Z,13.44
2023-11-26T12:35:28.643Z,13.45
2023-11-26T12:37:57.945Z,13.47
2023-11-26T12:40:24.835Z,13.47
2023-11-26T12:42:51.888Z,13.46
2023-11-26T12:45:19.379Z,13.45
2023-11-26T12:47:56.664Z,13.45
2023-11-26T12:50:24.601Z,13.41
2023-11-26T12:52:51.818Z,13.40
2023-11-26T12:55:18.998Z,13.38
2023-11-26T12:57:46.249Z,13.37
2023-11-26T13:00:14.644Z,13.37
2023-11-26T13:02:43.132Z,13.37
2023-11-26T13:05:30.149Z,13.37
2023-11-26T13:07:57.776Z,13.37
2023-11-26T13:10:47.567Z,13.38
2023-11-26T13:13:33.148Z,13.37
2023-11-26T13:16:01.411Z,13.35
2023-11-26T13:18:29.047Z,13.33
2023-11-26T13:21:02.554Z,13.31
2023-11-26T13:23:30.339Z,13.26
2023-11-26T13:25:58.184Z,13.22
2023-11-26T13:28:25.776Z,13.18
2023-11-26T13:30:53.409Z,13.15
2023-11-26T13:33:22.995Z,13.15
2023-11-26T13:35:52.643Z,13.12
2023-11-26T13:38:21.628Z,13.10
2023-11-26T13:40:49.138Z,13.07
2023-11-26T13:43:25.405Z,13.05
2023-11-26T13:45:52.204Z,13.02
2023-11-26T13:48:24.028Z,13.00
2023-11-26T13:53:18.400Z,12.98
2023-11-26T13:55:45.117Z,12.98
2023-11-26T13:58:11.857Z,12.97
2023-11-26T14:00:39.120Z,12.94
2023-11-26T14:03:06.423Z,12.91
2023-11-26T14:05:33.161Z,12.90
2023-11-26T14:07:59.692Z,12.87
2023-11-26T14:10:31.888Z,12.86
2023-11-26T14:13:02.744Z,12.85
2023-11-26T14:15:30.307Z,12.84
2023-11-26T14:17:57.535Z,12.82
2023-11-26T14:20:24.247Z,12.83
2023-11-26T14:22:54.999Z,12.85
2023-11-26T14:25:22.032Z,12.85
2023-11-26T14:27:51.052Z,12.87
2023-11-26T14:30:19.005Z,12.88
2023-11-26T14:32:48.516Z,12.89
2023-11-26T14:35:15.434Z,12.90
2023-11-26T14:37:42.282Z,12.91
2023-11-26T14:40:14.172Z,12.90
2023-11-26T14:42:42.996Z,12.89
2023-11-26T14:45:13.577Z,12.90
2023-11-26T14:47:43.333Z,12.88
2023-11-26T14:50:10.218Z,12.87
2023-11-26T14:52:37.070Z,12.87
2023-11-26T14:55:04.430Z,12.85
2023-11-26T14:57:31.477Z,12.85
2023-11-26T14:59:59.808Z,12.85
2023-11-26T15:02:28.890Z,12.84
2023-11-26T15:04:56.685Z,12.83
2023-11-26T15:07:23.521Z,12.83
2023-11-26T15:09:50.124Z,12.82
2023-11-26T15:12:17.041Z,12.82
2023-11-26T15:14:43.658Z,12.82
2023-11-26T15:17:10.286Z,12.80
2023-11-26T15:19:40.031Z,12.78
2023-11-26T15:22:09.606Z,12.77
2023-11-26T15:24:38.424Z,12.74
2023-11-26T15:27:06.296Z,12.73
2023-11-26T15:29:34.300Z,12.70
2023-11-26T15:32:07.190Z,12.68
2023-11-26T15:34:35.275Z,12.65
2023-11-26T15:37:02.146Z,12.62
2023-11-26T15:39:29.529Z,12.57
2023-11-26T15:41:57.924Z,12.54
2023-11-26T15:44:25.010Z,12.52
2023-11-26T15:46:52.759Z,12.48
2023-11-26T15:49:19.740Z,12.45
2023-11-26T15:51:46.864Z,12.42
2023-11-26T15:54:13.883Z,12.39
2023-11-26T15:56:40.956Z,12.36
2023-11-26T15:59:07.657Z,12.33
2023-11-26T16:01:34.615Z,12.30
2023-11-26T16:04:02.236Z,12.26
2023-11-26T16:06:29.998Z,12.24
2023-11-26T16:09:00.923Z,12.22
2023-11-26T16:11:29.069Z,12.18
2023-11-26T16:13:56.296Z,12.14
2023-11-26T16:16:23.342Z,12.12
2023-11-26T16:18:52.498Z,12.10
2023-11-26T16:21:19.330Z,12.08
2023-11-26T16:23:45.957Z,12.06
2023-11-26T16:26:12.666Z,12.03
2023-11-26T16:28:39.253Z,11.96
2023-11-26T16:31:07.634Z,11.91
2023-11-26T16:33:54.222Z,11.84
2023-11-26T16:36:22.921Z,11.78
2023-11-26T16:38:49.765Z,11.73
2023-11-26T16:41:18.997Z,11.67
2023-11-26T16:43:48.263Z,11.61
2023-11-26T16:46:15.639Z,11.53
2023-11-26T16:48:43.654Z,11.46
2023-11-26T16:51:11.088Z,11.37
2023-11-26T16:53:38.052Z,11.29
2023-11-26T16:56:08.556Z,11.22
2023-11-26T16:58:35.716Z,11.13
2023-11-26T17:01:07.483Z,11.09
2023-11-26T17:03:34.534Z,11.04
2023-11-26T17:06:02.348Z,10.98
2023-11-26T17:08:29.771Z,10.92
2023-11-26T17:11:00.520Z,10.88
2023-11-26T17:13:27.829Z,10.86
2023-11-26T17:15:54.859Z,10.85
2023-11-26T17:18:22.204Z,10.83
2023-11-26T17:20:49.174Z,10.79
2023-11-26T17:23:17.508Z,10.73
2023-11-26T17:25:46.870Z,10.71
2023-11-26T17:28:15.937Z,10.68
2023-11-26T17:30:43.012Z,10.63
2023-11-26T17:33:10.329Z,10.60
2023-11-26T17:35:37.088Z,10.53
2023-11-26T17:38:04.011Z,10.47
2023-11-26T17:40:30.594Z,10.41
2023-11-26T17:42:57.231Z,10.36
2023-11-26T17:45:23.973Z,10.33
2023-11-26T17:47:51.060Z,10.28
2023-11-26T17:50:17.781Z,10.26
2023-11-26T17:52:50.690Z,10.22
2023-11-26T17:55:24.700Z,10.17
2023-11-26T17:57:51.711Z,10.11
2023-11-26T18:00:19.785Z,10.05
2023-11-26T18:02:46.616Z,10.02
2023-11-26T18:05:13.467Z,9.99
2023-11-26T18:07:40.535Z,9.96
2023-11-26T18:10:07.876Z,9.91
2023-11-26T18:12:34.573Z,9.88
2023-11-26T18:15:01.126Z,9.85
2023-11-26T18:17:27.824Z,9.79
2023-11-26T18:19:55.424Z,9.77
2023-11-26T18:22:22.141Z,9.74
2023-11-26T18:24:48.749Z,9.72
2023-11-26T18:27:15.449Z,9.69
2023-11-26T18:29:42.612Z,9.67
2023-11-26T18:32:09.360Z,9.66
2023-11-26T18:34:36.258Z,9.63
2023-11-26T18:37:03.043Z,9.61
2023-11-26T18:39:29.915Z,9.58
2023-11-26T18:41:56.591Z,9.53
2023-11-26T18:44:23.410Z,9.50
2023-11-26T18:46:50.128Z,9.49
2023-11-26T18:49:16.885Z,9.44
2023-11-26T18:51:49.718Z,9.42
2023-11-26T18:54:16.375Z,9.39
2023-11-26T18:56:43.107Z,9.36
2023-11-26T18:59:10.143Z,9.33
2023-11-26T19:01:37.659Z,9.31
2023-11-26T19:04:04.579Z,9.27
2023-11-26T19:06:31.540Z,9.24
2023-11-26T19:09:04.167Z,9.23
2023-11-26T19:11:31.751Z,9.21
2023-11-26T19:13:59.707Z,9.16
2023-11-26T19:16:27.396Z,9.11
2023-11-26T19:18:54.603Z,9.08
2023-11-26T19:21:21.943Z,9.03
2023-11-26T19:23:49.918Z,8.98
2023-11-26T19:26:17.661Z,8.92
2023-11-26T19:28:45.094Z,8.88
2023-11-26T19:31:29.748Z,8.83
2023-11-26T19:33:56.436Z,8.83
2023-11-26T19:36:24.484Z,8.82
2023-11-26T19:38:52.050Z,8.80
2023-11-26T19:41:20.074Z,8.77
2023-11-26T19:43:47.120Z,8.73
2023-11-26T19:46:15.762Z,8.71
2023-11-26T19:48:44.472Z,8.68
2023-11-26T19:51:17.715Z,8.66
2023-11-26T19:53:45.889Z,8.66
2023-11-26T19:56:13.208Z,8.67
2023-11-26T19:58:39.847Z,8.64
2023-11-26T20:01:08.823Z,8.59
2023-11-26T20:03:36.347Z,8.56
2023-11-26T20:06:03.072Z,8.59
2023-11-26T20:08:29.697Z,8.58
2023-11-26T20:10:56.452Z,8.53
2023-11-26T20:13:23.162Z,8.52
2023-11-26T20:15:49.893Z,8.53
2023-11-26T20:18:16.956Z,8.54
2023-11-26T20:20:43.851Z,8.54
2023-11-26T20:23:14.990Z,8.51
2023-11-26T20:25:41.802Z,8.49
2023-11-26T20:28:09.412Z,8.48
2023-11-26T20:30:39.059Z,8.47
2023-11-26T20:33:08.652Z,8.43
2023-11-26T20:35:35.312Z,8.42
2023-11-26T20:38:02.135Z,8.41
2023-11-26T20:40:28.700Z,8.40
2023-11-26T20:42:55.346Z,8.38
2023-11-26T20:45:22.024Z,8.35
2023-11-26T20:47:48.717Z,8.34
2023-11-26T20:50:15.330Z,8.32
2023-11-26T20:52:42.126Z,8.30
2023-11-26T20:55:17.876Z,8.29
2023-11-26T20:57:44.515Z,8.26
2023-11-26T21:00:11.880Z,8.23
2023-11-26T21:02:38.976Z,8.18
2023-11-26T21:05:08.152Z,8.18
2023-11-26T21:07:35.853Z,8.17
2023-11-26T21:10:02.555Z,8.14
2023-11-26T21:12:29.297Z,8.11
2023-11-26T21:14:56.284Z,8.10
2023-11-26T21:17:23.393Z,8.09
2023-11-26T21:19:50.207Z,8.07
2023-11-26T21:22:22.303Z,8.08
2023-11-26T21:24:52.235Z,8.07
2023-11-26T21:27:19.355Z,8.05
2023-11-26T21:29:47.025Z,7.99
2023-11-26T21:32:15.088Z,7.97
2023-11-26T21:34:45.157Z,7.96
2023-11-26T21:37:13.948Z,7.96
2023-11-26T21:39:42.548Z,7.97
2023-11-26T21:42:09.762Z,7.94
2023-11-26T21:44:36.483Z,7.95
2023-11-26T21:47:03.159Z,7.93
2023-11-26T21:49:29.847Z,7.92
2023-11-26T21:51:56.551Z,7.91
2023-11-26T21:54:23.209Z,7.89
2023-11-26T21:56:49.814Z,7.88
2023-11-26T21:59:16.406Z,7.87
2023-11-26T22:01:43.466Z,7.83
2023-11-26T22:04:10.253Z,7.80
2023-11-26T22:06:37.062Z,7.81
2023-11-26T22:09:04.272Z,7.80
2023-11-26T22:11:31.132Z,7.77
2023-11-26T22:13:57.792Z,7.77
2023-11-26T22:16:24.538Z,7.79
2023-11-26T22:18:51.399Z,7.79
2023-11-26T22:21:19.289Z,7.81
2023-11-26T22:23:46.138Z,7.83
2023-11-26T22:26:13.043Z,7.85
2023-11-26T22:28:40.192Z,7.87
2023-11-26T22:31:07.278Z,7.88
2023-11-26T22:33:33.900Z,7.89
2023-11-26T22:36:00.543Z,7.90
2023-11-26T22:38:27.274Z,7.90
2023-11-26T22:40:53.853Z,7.90
2023-11-26T22:43:21.075Z,7.90
2023-11-26T22:45:47.791Z,7.88
2023-11-26T22:48:19.226Z,7.87
2023-11-26T22:50:52.187Z,7.88
2023-11-26T22:53:22.236Z,7.88
2023-11-26T22:55:51.267Z,7.89
2023-11-26T22:58:17.832Z,7.85
2023-11-26T23:00:44.848Z,7.83
2023-11-26T23:03:11.680Z,7.85
2023-11-26T23:05:38.293Z,7.83
2023-11-26T23:08:05.458Z,7.82
2023-11-26T23:10:32.011Z,7.82
2023-11-26T23:12:58.657Z,7.82
2023-11-26T23:15:25.312Z,7.83
2023-11-26T23:17:52.019Z,7.82
2023-11-26T23:20:21.684Z,7.83
2023-11-26T23:22:48.701Z,7.85
2023-11-26T23:25:15.442Z,7.88
2023-11-26T23:27:42.073Z,7.91
2023-11-26T23:30:08.856Z,7.95
2023-11-26T23:32:35.411Z,7.96
2023-11-26T23:35:02.067Z,7.97
2023-11-26T23:37:28.805Z,7.99
2023-11-26T23:39:55.428Z,8.03
2023-11-26T23:42:22.126Z,8.06
2023-11-26T23:44:49.046Z,8.05
2023-11-26T23:47:15.788Z,8.07
2023-11-26T23:49:42.477Z,8.10
2023-11-26T23:52:09.708Z,8.12
2023-11-26T23:54:36.494Z,8.16
2023-11-26T23:57:03.569Z,8.17
2023-11-26T23:59:30.272Z,8.17
